Tiempo atmosférico en la estación meteorológica de Valsequillo, Córdoba (575 m.)



Fecha
DESCASC
Temp. máxima en grados centígrados (hora)
DESCASC
Temp. mínima en grados centígrados (hora)
DESCASC
Temp. media en grados centígrados
DESCASC
Racha de viento máxima en m/sg (hora)
DESCASC
Velocidad máxima media en intervalos de 10 minutos(hora)
DESCASC
Precipitaciones diarias en mm
DESCASC
Precipitaciones de 00:00 a 06:00 en mm
DESCASC
Precipitaciones de 06:00 a 12:00 en mm
DESCASC
Precipitaciones de 12:00 a 18:00 en mm
DESCASC
Precipitaciones de 18:00 a 24:00 en mm
DESCASC
16-05-2019 30 (15:50) 14 (00:00) 22 16.39 (20:10) 11.11 (20:10) 0 0 0 0 0
17-05-2019 19.6 (17:50) 7.3 (00:00) 13.5 14.17 (11:00) 10.83 (11:00) 0 0 0 0 0
18-05-2019 19.9 (17:50) 8.1 (00:00) 14 13.06 (17:20) 8.89 (11:20) 0 0 0 0 0
08-05-2019 21.7 (16:10) 12.6 (00:00) 17.2 12.5 (14:20) 8.33 (19:20) 0 0 0 0 0
03-05-2019 27.3 (17:20) 11.2 (00:00) 19.2 13.61 (15:40) 7.78 (14:10) 0 0 0 0 0
23-05-2019 29.9 (16:20) 12.4 (06:20) 21.1 10 (20:00) 7.22 (20:00) 0 0 0 0 0
09-05-2019 22.9 (15:40) 14.1 (00:00) 18.5 9.72 (01:10) 6.94 (01:00) 0.6 0 0.6 0 0
19-05-2019 22.5 (17:10) 7.3 (00:00) 14.9 14.17 (16:20) 6.67 (14:50) 0 0 0 0 0
10-05-2019 26.6 (17:50) 12.7 (00:00) 19.7 9.17 (15:00) 6.11 (20:10) 0 0 0 0 0
20-05-2019 25.4 (16:30) 7 (07:40) 16.2 8.89 (16:30) 6.11 (23:59) 0 0 0 0 0
07-05-2019 26.6 (17:20) 7.7 (00:00) 17.2 11.39 (13:20) 6.11 (19:50) 0 0 0 0 0
15-05-2019 33.5 (17:10) 12.9 (00:00) 23.2 10.56 (13:10) 5.83 (17:10) 0 0 0 0 0
05-05-2019 27.3 (18:10) 11.1 (00:00) 19.2 8.89 (17:30) 5.56 (19:30) 0 0 0 0 0
06-05-2019 25.9 (15:40) 11.6 (00:00) 18.8 10 (15:40) 5.56 (15:40) 0 0 0 0 0
14-05-2019 31.9 (18:40) 13.3 (00:00) 22.6 9.44 (11:10) 5.28 (11:20) 0 0 0 0 0
21-05-2019 26.4 (16:20) 8.9 (07:30) 17.6 7.5 (00:10) 5.28 (00:10) 0 0 0 0 0
11-05-2019 29.6 (18:30) 9.4 (00:00) 19.5 8.33 (19:30) 5 (17:10) 0 0 0 0 0
26-04-2019 17.5 (17:50) 2.9 (00:00) 10.2 8.06 (14:20) 4.72 (17:20) 0.2 0 0.2 0 0
02-05-2019 28.4 (17:00) 10.1 (08:00) 19.3 16.11 (15:50) 4.72 (20:00) 0 0 0 0 0
04-05-2019 26.1 (18:10) 7.2 (00:00) 16.7 9.72 (17:00) 4.44 (19:50) 0 0 0 0 0
30-04-2019 28.8 (16:30) 11.1 (00:00) 19.9 7.22 (16:20) 4.44 (17:50) 0 0 0 0 0
12-05-2019 31.5 (16:20) 14.1 (00:00) 22.8 8.06 (16:20) 4.17 (19:30) 0 0 0 0 0
13-05-2019 32.6 (17:40) 7.8 (00:00) 20.2 8.33 (13:20) 4.17 (18:10) 0 0 0 0 0
29-04-2019 28.1 (16:50) 9.6 (00:00) 18.9 6.94 (15:50) 3.89 (19:30) 0 0 0 0 0
01-05-2019 28.4 (16:10) 11 (00:00) 19.7 6.11 (14:50) 3.61 (16:10) 0 0 0 0 0
28-04-2019 26.8 (16:50) 6.2 (00:00) 16.5 7.22 (15:30) 3.61 (17:50) 0 0 0 0 0
27-04-2019 23.7 (17:20) 3.5 (00:00) 13.6 7.5 (16:50) 3.61 (19:00) 0 0 0 0 0
22-05-2019 28.9 (15:40) 10.2 (07:30) 19.5 6.67 (14:40) 3.33 (14:20) 0 0 0 0 0

Gráficas

Temp. máximas Temp. mínimas Temp. medias Precipitaciones Rachas de viento máximas Velocidades máximas media en intervalos de 10 minutos

Datos horarios

Fecha y hora oficial Temperatura (ºC) Velocidad del viento (km/h) Dirección del viento Racha (km/h) Dirección de racha Precipitación (mm) Presión (hPa) Tendencia (hPa) Humedad (%)
2019-05-25 23:00:00 18.8 8 Norte 12 Norte 0 -- -- 35
2019-05-25 22:00:00 21 9 Norte 19 Norte 0 -- -- 30
2019-05-25 21:00:00 24.5 12 Nordeste 22 Nordeste 0 -- -- 27
2019-05-25 20:00:00 25.5 11 Nordeste 25 Norte 0 -- -- 25
2019-05-25 19:00:00 26.4 14 Norte 30 Nordeste 0 -- -- 23
2019-05-25 18:00:00 26.4 11 Nordeste 31 Nordeste 0 -- -- 24
2019-05-25 17:00:00 26.1 18 Norte 31 Norte 0 -- -- 24
2019-05-25 16:00:00 26 12 Nordeste 30 Este 0 -- -- 25
2019-05-25 15:00:00 24.8 17 Nordeste 35 Nordeste 0 -- -- 27
2019-05-25 14:00:00 23.2 17 Norte 34 Nordeste 0 -- -- 31
2019-05-25 13:00:00 22.1 17 Nordeste 32 Norte 0 -- -- 35
2019-05-25 12:00:00 20.4 15 Nordeste 28 Nordeste 0 -- -- 40
2019-05-25 11:00:00 19.4 15 Nordeste 32 Nordeste 0 -- -- 43
2019-05-25 10:00:00 17.2 15 Nordeste 29 Nordeste 0 -- -- 48
2019-05-25 09:00:00 15.8 15 Nordeste 34 Nordeste 0 -- -- 53
2019-05-25 08:00:00 13.9 4 Este 13 Sur 0 -- -- 70
2019-05-25 07:00:00 13.8 4 Nordeste 13 Nordeste 0 -- -- 73
2019-05-25 06:00:00 14.3 6 Nordeste 12 Nordeste 0 -- -- 69
2019-05-25 05:00:00 15.8 8 Nordeste 25 Nordeste 0 -- -- 63
2019-05-25 04:00:00 16.6 12 Nordeste 19 Nordeste 0 -- -- 54
2019-05-25 03:00:00 17.3 5 Nordeste 18 Nordeste 0 -- -- 40
2019-05-25 02:00:00 18.4 12 Nordeste 26 Nordeste 0 -- -- 36
2019-05-25 01:00:00 19.7 13 Nordeste 25 Nordeste 0 -- -- 34
2019-05-25 00:00:00 20.8 7 Nordeste 21 Norte 0 -- -- 35
2019-05-24 23:00:00 22 13 Norte 21 Norte 0 -- -- 30
2019-05-24 22:00:00 21.6 10 Norte 29 Norte 0 -- -- 31
2019-05-24 21:00:00 25.2 19 Norte 38 Noroeste 0 -- -- 26
2019-05-24 20:00:00 26.2 19 Norte 32 Norte 0 -- -- 28
2019-05-24 19:00:00 27.4 18 Norte 29 Norte 0 -- -- 30
2019-05-24 18:00:00 27 15 Norte 40 Nordeste 0 -- -- 31
2019-05-24 17:00:00 26.7 10 Nordeste 27 Noroeste 0 -- -- 30
2019-05-24 16:00:00 26.2 12 Norte 36 Norte 0 -- -- 29
2019-05-24 15:00:00 25.5 13 Noroeste 30 Norte 0 -- -- 28
2019-05-24 14:00:00 24.6 15 Norte 29 Norte 0 -- -- 29
2019-05-24 13:00:00 23.6 15 Noroeste 27 Oeste 0 -- -- 36
2019-05-24 12:00:00 21.8 12 Noroeste 22 Noroeste 0 -- -- 42
2019-05-24 11:00:00 19.4 12 Noroeste 28 Noroeste 0 -- -- 49
2019-05-24 10:00:00 16.7 14 Noroeste 20 Noroeste 0 -- -- 59
2019-05-24 09:00:00 13.6 4 Noroeste 8 Sudoeste 0 -- -- 72
2019-05-24 08:00:00 11.6 3 Sudoeste 8 Sudoeste 0 -- -- 80
2019-05-24 07:00:00 11.6 0 Calma 6 Sudoeste 0 -- -- 84
2019-05-24 06:00:00 12.4 4 Sudoeste 12 Noroeste 0 -- -- 81
2019-05-24 05:00:00 13.3 3 Noroeste 8 Noroeste 0 -- -- 79
2019-05-24 04:00:00 14.2 5 Noroeste 13 Oeste 0 -- -- 74
2019-05-24 03:00:00 15.3 4 Sudeste 14 Oeste 0 -- -- 68
2019-05-24 02:00:00 16.5 11 Oeste 22 Noroeste 0 -- -- 65
2019-05-24 01:00:00 18.3 8 Noroeste 27 Noroeste 0 -- -- 58
2019-05-24 00:00:00 19.5 9 Noroeste 26 Oeste 0 -- -- 40
2019-05-23 23:00:00 21.2 15 Noroeste 26 Noroeste 0 -- -- 34
2019-05-23 22:00:00 22.3 14 Noroeste 31 Noroeste 0 -- -- 31
2019-05-23 21:00:00 24.3 24 Noroeste 35 Oeste 0 -- -- 27
2019-05-23 20:00:00 26.4 26 Noroeste 36 Noroeste 0 -- -- 24
2019-05-23 19:00:00 28.5 15 Noroeste 29 Oeste 0 -- -- 26
2019-05-23 18:00:00 29.1 18 Oeste 33 Oeste 0 -- -- 25
2019-05-23 17:00:00 29.2 10 Noroeste 30 Oeste 0 -- -- 25
2019-05-23 16:00:00 29.6 12 Sudoeste 31 Oeste 0 -- -- 26
2019-05-23 15:00:00 28.7 10 Sur 29 Oeste 0 -- -- 27
2019-05-23 14:00:00 28.6 10 Sudoeste 30 Oeste 0 -- -- 27
2019-05-23 13:00:00 26.7 12 Sudoeste 22 Sudoeste 0 -- -- 31
2019-05-23 12:00:00 26.3 5 Norte 12 Norte 0 -- -- 33
2019-05-23 11:00:00 24.3 5 Oeste 10 Oeste 0 -- -- 41
2019-05-23 10:00:00 21 3 Sur 9 Sur 0 -- -- 53
2019-05-23 09:00:00 17 6 Sur 12 Sur 0 -- -- 65
2019-05-23 08:00:00 14.1 4 Sur 9 Sur 0 -- -- 72
2019-05-23 07:00:00 13.7 4 Sur 9 Sur 0 -- -- 71
2019-05-23 06:00:00 12.9 0 Calma 4 Oeste 0 -- -- 64
2019-05-23 05:00:00 14.8 0 Calma 4 Sur 0 -- -- 58
2019-05-23 04:00:00 16.7 0 Calma 12 Oeste 0 -- -- 52
2019-05-23 03:00:00 18.2 11 Noroeste 17 Noroeste 0 -- -- 49
2019-05-23 02:00:00 19.3 8 Oeste 21 Oeste 0 -- -- 43
2019-05-23 01:00:00 20 11 Sudoeste 14 Sudoeste 0 -- -- 40
2019-05-23 00:00:00 21.1 5 Sur 14 Sudoeste 0 -- -- 38
2019-05-22 23:00:00 22.8 10 Sudoeste 19 Sur 0 -- -- 34
2019-05-22 22:00:00 23.6 7 Sur 14 Sur 0 -- -- 33
2019-05-22 21:00:00 26.2 6 Sur 16 Sudoeste 0 -- -- 28
2019-05-22 20:00:00 28 6 Sur 14 Sudoeste 0 -- -- 25
2019-05-22 19:00:00 27.9 9 Sudoeste 15 Sudoeste 0 -- -- 24
2019-05-22 18:00:00 27.7 6 Sudoeste 18 Sur 0 -- -- 25
2019-05-22 17:00:00 28.4 6 Nordeste 20 Sudoeste 0 -- -- 25
2019-05-22 16:00:00 27.8 10 Sudoeste 21 Sudoeste 0 -- -- 26
2019-05-22 15:00:00 28.3 8 Sur 24 Sudeste 0 -- -- 26
2019-05-22 14:00:00 26.1 12 Sur 21 Sudeste 0 -- -- 29
2019-05-22 13:00:00 25.3 7 Sudoeste 20 Sudeste 0 -- -- 28
2019-05-22 12:00:00 24.8 5 Sur 18 Sudeste 0 -- -- 29
2019-05-22 11:00:00 23.2 6 Sur 14 Sur 0 -- -- 40
2019-05-22 10:00:00 21 6 Sur 12 Sudeste 0 -- -- 45
2019-05-22 09:00:00 16.1 3 Sudeste 10 Sur 0 -- -- 55
2019-05-22 08:00:00 10.5 0 Calma 2 Sudoeste 0 -- -- 63
2019-05-22 07:00:00 10.6 0 Calma 6 Sur 0 -- -- 60
2019-05-22 06:00:00 10.8 2 Sur 8 Sudoeste 0 -- -- 61
2019-05-22 05:00:00 10.9 2 Sur 6 Sudoeste 0 -- -- 59
2019-05-22 04:00:00 11.1 0 Calma 4 Oeste 0 -- -- 53
2019-05-22 03:00:00 12.9 0 Calma 2 Noroeste 0 -- -- 50
2019-05-22 02:00:00 14.1 0 Calma 6 Sur 0 -- -- 47
2019-05-22 01:00:00 15.2 4 Sur 7 Sur 0 -- -- 44
2019-05-22 00:00:00 15.8 2 Oeste 6 Noroeste 0 -- -- 42
2019-05-21 23:00:00 17.5 6 Noroeste 9 Noroeste 0 -- -- 37
2019-05-21 22:00:00 19.9 8 Norte 18 Noroeste 0 -- -- 34
2019-05-21 21:00:00 23.5 13 Noroeste 22 Noroeste 0 -- -- 29
2019-05-21 20:00:00 24.9 9 Noroeste 21 Noroeste 0 -- -- 27
2019-05-21 19:00:00 25.2 15 Noroeste 27 Norte 0 -- -- 27
2019-05-21 18:00:00 25.3 9 Norte 26 Noroeste 0 -- -- 28
2019-05-21 17:00:00 26.1 11 Oeste 24 Oeste 0 -- -- 26
2019-05-21 16:00:00 25.3 13 Oeste 23 Oeste 0 -- -- 27
2019-05-21 15:00:00 24 13 Oeste 24 Noroeste 0 -- -- 29
2019-05-21 14:00:00 23.4 10 Noroeste 27 Norte 0 -- -- 31
2019-05-21 13:00:00 22.5 7 Noroeste 20 Noroeste 0 -- -- 34
2019-05-21 12:00:00 21.4 7 Norte 18 Noroeste 0 -- -- 38
2019-05-21 11:00:00 19.8 8 Noroeste 16 Noroeste 0 -- -- 42
2019-05-21 10:00:00 17.1 2 Oeste 9 Noroeste 0 -- -- 50
2019-05-21 09:00:00 12.5 0 Calma 4 Este 0 -- -- 65
2019-05-21 08:00:00 9.7 0 Calma 5 Sudoeste 0 -- -- 74
2019-05-21 07:00:00 9.5 0 Calma 3 Noroeste 0 -- -- 68
2019-05-21 06:00:00 11 0 Calma 6 Oeste 0 -- -- 64
2019-05-21 05:00:00 12.2 0 Calma 13 Noroeste 0 -- -- 61
2019-05-21 04:00:00 13.5 11 Noroeste 14 Oeste 0 -- -- 58
2019-05-21 03:00:00 13.4 9 Noroeste 12 Oeste 0 -- -- 55
2019-05-21 02:00:00 15.5 10 Noroeste 18 Noroeste 0 -- -- 48
2019-05-21 01:00:00 16.6 11 Noroeste 27 Noroeste 0 -- -- 43
2019-05-21 00:00:00 19 22 Noroeste 31 Noroeste 0 -- -- 38
2019-05-20 23:00:00 19 4 Oeste 9 Noroeste 0 -- -- 31
2019-05-20 22:00:00 19.9 9 Noroeste 24 Noroeste 0 -- -- 28
2019-05-20 21:00:00 22 17 Noroeste 26 Oeste 0 -- -- 25
2019-05-20 20:00:00 23 17 Oeste 29 Noroeste 0 -- -- 22
2019-05-20 19:00:00 24.6 15 Noroeste 30 Oeste 0 -- -- 20
2019-05-20 18:00:00 24.1 14 Noroeste 28 Oeste 0 -- -- 21
2019-05-20 17:00:00 25.3 13 Noroeste 32 Noroeste 0 -- -- 19
2019-05-20 16:00:00 24.6 9 Oeste 31 Noroeste 0 -- -- 23
2019-05-20 15:00:00 23.5 9 Oeste 23 Oeste 0 -- -- 23
2019-05-20 14:00:00 22.3 6 Oeste 24 Noroeste 0 -- -- 27
2019-05-20 13:00:00 21.4 11 Noroeste 20 Oeste 0 -- -- 28
2019-05-20 12:00:00 19.9 8 Oeste 17 Oeste 0 -- -- 33
2019-05-20 11:00:00 18.1 5 Sur 11 Norte 0 -- -- 38
2019-05-20 10:00:00 15.6 4 Sudoeste 11 Sudoeste 0 -- -- 45
2019-05-20 09:00:00 11.6 6 Sudoeste 9 Sudoeste 0 -- -- 60
2019-05-20 08:00:00 7.7 3 Sur 5 Sur 0 -- -- 73
2019-05-20 07:00:00 7.3 2 Sur 5 Sudoeste 0 -- -- 72
2019-05-20 06:00:00 8.9 3 Sur 7 Sudoeste 0 -- -- 63
2019-05-20 05:00:00 9.8 4 Sur 8 Sudeste 0 -- -- 63
2019-05-20 04:00:00 10.8 3 Norte 11 Oeste 0 -- -- 60
2019-05-20 03:00:00 11.3 5 Sudoeste 14 Oeste 0 -- -- 57
2019-05-20 02:00:00 13.1 9 Oeste 15 Oeste 0 -- -- 53
2019-05-20 01:00:00 13.1 10 Oeste 13 Oeste 0 -- -- 52
2019-05-20 00:00:00 14.9 11 Oeste 22 Oeste 0 -- -- 47
2019-05-19 23:00:00 15.7 11 Oeste 16 Oeste 0 -- -- 43
2019-05-19 22:00:00 17 10 Oeste 15 Noroeste 0 -- -- 36
2019-05-19 21:00:00 19 11 Noroeste 24 Noroeste 0 -- -- 29
2019-05-19 20:00:00 20.4 16 Noroeste 29 Oeste 0 -- -- 27
2019-05-19 19:00:00 20.9 19 Oeste 36 Noroeste 0 -- -- 27
2019-05-19 18:00:00 21.7 20 Noroeste 40 Noroeste 0 -- -- 25
2019-05-19 17:00:00 22.3 21 Noroeste 51 Oeste 0 -- -- 25
2019-05-19 16:00:00 22.1 24 Noroeste 36 Noroeste 0 -- -- 26
2019-05-19 15:00:00 20.8 20 Noroeste 37 Noroeste 0 -- -- 27
2019-05-19 14:00:00 19.9 13 Noroeste 44 Oeste 0 -- -- 29
2019-05-19 13:00:00 19 17 Noroeste 30 Norte 0 -- -- 29
2019-05-19 12:00:00 17.2 12 Noroeste 24 Noroeste 0 -- -- 35
2019-05-19 11:00:00 15.2 8 Noroeste 19 Oeste 0 -- -- 46
2019-05-19 10:00:00 13.1 10 Noroeste 18 Noroeste 0 -- -- 56
2019-05-19 09:00:00 10.7 13 Noroeste 21 Oeste 0 -- -- 65
2019-05-19 08:00:00 7.6 5 Oeste 13 Noroeste 0 -- -- 76
2019-05-19 07:00:00 8.6 9 Noroeste 18 Oeste 0 -- -- 70
2019-05-19 06:00:00 9.7 12 Oeste 22 Noroeste 0 -- -- 65
2019-05-19 05:00:00 10.4 14 Noroeste 23 Oeste 0 -- -- 62
2019-05-19 04:00:00 10.7 16 Oeste 25 Oeste 0 -- -- 60
2019-05-19 03:00:00 11.3 16 Noroeste 31 Oeste 0 -- -- 55
2019-05-19 02:00:00 12 18 Noroeste 27 Noroeste 0 -- -- 52
2019-05-19 01:00:00 12.7 19 Oeste 30 Oeste 0 -- -- 48
2019-05-19 00:00:00 13.3 16 Oeste 23 Oeste 0 -- -- 44
2019-05-18 23:00:00 14 15 Oeste 28 Oeste 0 -- -- 40
2019-05-18 22:00:00 14.7 12 Noroeste 30 Noroeste 0 -- -- 36
2019-05-18 21:00:00 16.6 24 Noroeste 37 Noroeste 0 -- -- 32
2019-05-18 20:00:00 18.1 22 Oeste 36 Noroeste 0 -- -- 29
2019-05-18 19:00:00 19.6 22 Noroeste 46 Noroeste 0 -- -- 26
2019-05-18 18:00:00 19.7 27 Noroeste 47 Noroeste 0 -- -- 26
2019-05-18 17:00:00 19.8 27 Noroeste 46 Noroeste 0 -- -- 26
2019-05-18 16:00:00 19.4 26 Noroeste 45 Noroeste 0 -- -- 26
2019-05-18 15:00:00 18.1 21 Noroeste 43 Oeste 0 -- -- 27
2019-05-18 14:00:00 17.6 26 Noroeste 42 Noroeste 0 -- -- 30
2019-05-18 13:00:00 16.4 19 Noroeste 41 Noroeste 0 -- -- 34
2019-05-18 12:00:00 15 25 Noroeste 46 Noroeste 0 -- -- 34
2019-05-18 11:00:00 14 28 Noroeste 41 Noroeste 0 -- -- 41
2019-05-18 10:00:00 12.1 23 Noroeste 40 Noroeste 0 -- -- 50
2019-05-18 09:00:00 10.4 20 Noroeste 28 Noroeste 0 -- -- 60
2019-05-18 08:00:00 8.3 12 Noroeste 26 Noroeste 0 -- -- 69
2019-05-18 07:00:00 8.8 14 Noroeste 26 Noroeste 0 -- -- 66
2019-05-18 06:00:00 8.5 16 Noroeste 31 Oeste 0 -- -- 66
2019-05-18 05:00:00 9.9 20 Noroeste 28 Noroeste 0 -- -- 60
2019-05-18 04:00:00 10.5 13 Noroeste 31 Noroeste 0 -- -- 57
2019-05-18 03:00:00 10.9 21 Noroeste 33 Noroeste 0 -- -- 56
2019-05-18 02:00:00 11.3 19 Noroeste 31 Oeste 0 -- -- 55
2019-05-18 01:00:00 12 19 Oeste 30 Oeste 0 -- -- 53
2019-05-18 00:00:00 13.1 20 Noroeste 30 Noroeste 0 -- -- 51
2019-05-17 23:00:00 13.6 12 Oeste 21 Noroeste 0 -- -- 45
2019-05-17 22:00:00 15.5 17 Oeste 35 Oeste 0 -- -- 40
2019-05-17 21:00:00 17 19 Oeste 32 Oeste 0 -- -- 36
2019-05-17 20:00:00 18.5 18 Noroeste 35 Noroeste 0 -- -- 30
2019-05-17 19:00:00 18.9 21 Noroeste 36 Noroeste 0 -- -- 29
2019-05-17 18:00:00 19.6 24 Noroeste 43 Noroeste 0 -- -- 28
2019-05-17 17:00:00 19.2 27 Noroeste 51 Noroeste 0 -- -- 29
2019-05-17 16:00:00 17.6 30 Oeste 42 Noroeste 0 -- -- 34
2019-05-17 15:00:00 17.4 31 Noroeste 49 Noroeste 0 -- -- 34
2019-05-17 14:00:00 17.4 26 Noroeste 45 Noroeste 0 -- -- 35
2019-05-17 13:00:00 15.8 30 Noroeste 50 Noroeste 0 -- -- 39
2019-05-17 12:00:00 14.7 31 Noroeste 50 Noroeste 0 -- -- 42
2019-05-17 11:00:00 13.2 39 Noroeste 51 Noroeste 0 -- -- 47
2019-05-17 10:00:00 11.6 33 Noroeste 50 Noroeste 0 -- -- 53
2019-05-17 09:00:00 10.4 29 Noroeste 40 Noroeste 0 -- -- 57
2019-05-17 08:00:00 7.8 12 Noroeste 24 Oeste 0 -- -- 73
2019-05-17 07:00:00 7.3 16 Oeste 24 Oeste 0 -- -- 75
2019-05-17 06:00:00 7.8 15 Oeste 23 Noroeste 0 -- -- 72
2019-05-17 05:00:00 8.5 18 Noroeste 30 Noroeste 0 -- -- 71
2019-05-17 04:00:00 9.4 17 Noroeste 39 Oeste 0 -- -- 71
2019-05-17 03:00:00 10.4 14 Noroeste 36 Noroeste 0 -- -- 71
2019-05-17 02:00:00 11.5 24 Oeste 37 Noroeste 0 -- -- 63
2019-05-17 01:00:00 12.7 22 Oeste 45 Noroeste 0 -- -- 62
2019-05-17 00:00:00 14 31 Noroeste 46 Oeste 0 -- -- 59
2019-05-16 23:00:00 15.4 28 Oeste 57 Oeste 0 -- -- 58
2019-05-16 22:00:00 18.1 27 Oeste 49 Oeste 0 -- -- 52
2019-05-16 21:00:00 20.6 33 Oeste 59 Oeste 0 -- -- 33
2019-05-16 20:00:00 23.9 39 Oeste 57 Oeste 0 -- -- 26
2019-05-16 19:00:00 27 35 Oeste 58 Oeste 0 -- -- 27
2019-05-16 18:00:00 28.5 34 Oeste 50 Sudoeste 0 -- -- 21
2019-05-16 17:00:00 29.7 31 Oeste 46 Oeste 0 -- -- 22
2019-05-16 16:00:00 29.6 27 Oeste 50 Noroeste 0 -- -- 21
2019-05-16 15:00:00 29.3 25 Oeste 40 Noroeste 0 -- -- 22
2019-05-16 14:00:00 28.5 22 Oeste 42 Sudoeste 0 -- -- 23
2019-05-16 13:00:00 27.7 22 Oeste 36 Oeste 0 -- -- 24
2019-05-16 12:00:00 26 15 Oeste 28 Sudoeste 0 -- -- 32
2019-05-16 11:00:00 24.6 13 Oeste 20 Sudoeste 0 -- -- 35
2019-05-16 10:00:00 20.9 4 Sudoeste 13 Sudoeste 0 -- -- 43
2019-05-16 09:00:00 16.8 11 Sudoeste 16 Sudoeste 0 -- -- 56
2019-05-16 08:00:00 14.1 2 Sur 10 Sudoeste 0 -- -- 64
2019-05-16 07:00:00 14.4 6 Sudoeste 11 Sudoeste 0 -- -- 64
2019-05-16 06:00:00 15.2 0 Calma 12 Sur 0 -- -- 60
2019-05-16 05:00:00 16.8 6 Sur 10 Sur 0 -- -- 56
2019-05-16 04:00:00 17.5 5 Sudeste 8 Sudoeste 0 -- -- 53
2019-05-16 03:00:00 19.5 0 Calma 8 Oeste 0 -- -- 47
2019-05-16 02:00:00 20.5 10 Noroeste 20 Noroeste 0 -- -- 46
2019-05-16 01:00:00 21.7 14 Noroeste 27 Noroeste 0 -- -- 40
2019-05-16 00:00:00 23 18 Noroeste 25 Noroeste 0 -- -- 33
2019-05-15 23:00:00 22 10 Noroeste 12 Oeste 0 -- -- 25
2019-05-15 22:00:00 24.9 10 Oeste 16 Oeste 0 -- -- 22
2019-05-15 21:00:00 30.2 11 Oeste 21 Noroeste 0 -- -- 17
2019-05-15 20:00:00 31.9 12 Noroeste 27 Noroeste 0 -- -- 15
2019-05-15 19:00:00 32.7 13 Noroeste 30 Oeste 0 -- -- 16
2019-05-15 18:00:00 33.1 13 Noroeste 32 Noroeste 0 -- -- 17
2019-05-15 17:00:00 33.3 17 Noroeste 30 Noroeste 0 -- -- 17
2019-05-15 16:00:00 32.8 12 Oeste 32 Noroeste 0 -- -- 17
2019-05-15 15:00:00 32.3 17 Oeste 34 Oeste 0 -- -- 19
2019-05-15 14:00:00 31.5 17 Noroeste 38 Oeste 0 -- -- 22
2019-05-15 13:00:00 30.4 12 Noroeste 27 Oeste 0 -- -- 24
2019-05-15 12:00:00 28.9 11 Oeste 20 Oeste 0 -- -- 27
2019-05-15 11:00:00 26.6 4 Sudoeste 10 Sudoeste 0 -- -- 31
2019-05-15 10:00:00 22.5 6 Sur 10 Sudoeste 0 -- -- 37
2019-05-15 09:00:00 18 6 Sur 12 Sur 0 -- -- 40
2019-05-15 08:00:00 15.5 4 Sur 9 Sur 0 -- -- 42
2019-05-15 07:00:00 13.6 4 Sur 10 Sur 0 -- -- 41
2019-05-15 06:00:00 13.3 0 Calma 4 Sudoeste 0 -- -- 42
2019-05-15 05:00:00 14.8 0 Calma 9 Sudoeste 0 -- -- 38
2019-05-15 04:00:00 15.9 7 Sudoeste 10 Sur 0 -- -- 36
2019-05-15 03:00:00 16.9 0 Calma 10 Sudoeste 0 -- -- 34
2019-05-15 02:00:00 18.2 4 Sudoeste 8 Sudoeste 0 -- -- 32
2019-05-15 01:00:00 18.7 2 Sur 15 Sur 0 -- -- 31
2019-05-15 00:00:00 21.6 8 Sur 18 Sur 0 -- -- 26
2019-05-14 23:00:00 22.7 9 Sur 18 Sudoeste 0 -- -- 26
2019-05-14 22:00:00 24.6 10 Sur 22 Sur 0 -- -- 25
2019-05-14 21:00:00 28 14 Sur 24 Sur 0 -- -- 22
2019-05-14 20:00:00 31.3 9 Oeste 25 Oeste 0 -- -- 18
2019-05-14 19:00:00 31.9 7 Oeste 21 Oeste 0 -- -- 17
2019-05-14 18:00:00 31.5 6 Oeste 22 Oeste 0 -- -- 18
2019-05-14 17:00:00 31.3 10 Noroeste 17 Noroeste 0 -- -- 17
2019-05-14 16:00:00 30.4 8 Sudoeste 19 Sudoeste 0 -- -- 19
2019-05-14 15:00:00 29.3 8 Sudeste 20 Sudeste 0 -- -- 20
2019-05-14 14:00:00 27.7 9 Sur 21 Sudeste 0 -- -- 25
2019-05-14 13:00:00 26.4 11 Sur 22 Sudeste 0 -- -- 27
2019-05-14 12:00:00 24.8 16 Sudeste 34 Sur 0 -- -- 29
2019-05-14 11:00:00 22.9 18 Sur 26 Sur 0 -- -- 33
2019-05-14 10:00:00 20.9 12 Sudeste 29 Sur 0 -- -- 38
2019-05-14 09:00:00 18.1 14 Sur 27 Sur 0 -- -- 43
2019-05-14 08:00:00 14.7 6 Sudeste 12 Este 0 -- -- 53
2019-05-14 07:00:00 13.3 2 Sur 8 Sur 0 -- -- 66
2019-05-14 06:00:00 14 6 Sudoeste 12 Sur 0 -- -- 61
2019-05-14 05:00:00 15.4 0 Calma 13 Sur 0 -- -- 58
2019-05-14 04:00:00 16.2 0 Calma 14 Sur 0 -- -- 42
2019-05-14 03:00:00 18 9 Sur 23 Sur 0 -- -- 31
2019-05-14 02:00:00 15.6 4 Sur 10 Sur 0 -- -- 33
2019-05-14 01:00:00 15 0 Calma 3 Nordeste 0 -- -- 38
2019-05-14 00:00:00 17.3 2 Este 5 Este 0 -- -- 32
2019-05-13 23:00:00 20.1 0 Calma 5 Sudoeste 0 -- -- 26
2019-05-13 22:00:00 23.8 2 Oeste 9 Norte 0 -- -- 21
2019-05-13 21:00:00 29.1 7 Nordeste 16 Nordeste 0 -- -- 15
2019-05-13 20:00:00 31.2 8 Nordeste 23 Norte 0 -- -- 14
2019-05-13 19:00:00 32.3 8 Nordeste 23 Norte 0 -- -- 13
2019-05-13 18:00:00 32.6 10 Nordeste 30 Norte 0 -- -- 12
2019-05-13 17:00:00 32 9 Nordeste 23 Norte 0 -- -- 11
2019-05-13 16:00:00 31.5 8 Norte 25 Norte 0 -- -- 11
2019-05-13 15:00:00 30.5 9 Nordeste 24 Norte 0 -- -- 13
2019-05-13 14:00:00 29.5 10 Nordeste 30 Nordeste 0 -- -- 13
2019-05-13 13:00:00 28.7 12 Nordeste 26 Nordeste 0 -- -- 13
2019-05-13 12:00:00 27.7 13 Nordeste 24 Nordeste 0 -- -- 14
2019-05-13 11:00:00 24.3 9 Nordeste 19 Nordeste 0 -- -- 22
2019-05-13 10:00:00 20.7 3 Nordeste 10 Norte 0 -- -- 27
2019-05-13 09:00:00 14.1 3 Nordeste 8 Nordeste 0 -- -- 39
2019-05-13 08:00:00 8.2 0 Calma 4 Nordeste 0 -- -- 64
2019-05-13 07:00:00 8.4 0 Calma 5 Nordeste 0 -- -- 60
2019-05-13 06:00:00 9.5 0 Calma 3 Nordeste 0 -- -- 57
2019-05-13 05:00:00 10.4 0 Calma 4 Oeste 0 -- -- 58
2019-05-13 04:00:00 10.6 3 Oeste 4 Oeste 0 -- -- 58
2019-05-13 03:00:00 12 0 Calma 4 Oeste 0 -- -- 56
2019-05-13 02:00:00 13.4 0 Calma 3 Nordeste 0 -- -- 51
2019-05-13 01:00:00 15.6 0 Calma 3 Este 0 -- -- 46
2019-05-13 00:00:00 18.2 0 Calma 8 Nordeste 0 -- -- 40
2019-05-12 23:00:00 21.5 2 Nordeste 12 Norte 0 -- -- 34
2019-05-12 22:00:00 23.8 5 Nordeste 15 Nordeste 0 -- -- 30
2019-05-12 21:00:00 27.8 9 Nordeste 20 Nordeste 0 -- -- 24
2019-05-12 20:00:00 29.8 9 Nordeste 26 Norte 0 -- -- 21
2019-05-12 19:00:00 30.7 10 Nordeste 24 Norte 0 -- -- 20
2019-05-12 18:00:00 31.5 10 Nordeste 24 Nordeste 0 -- -- 21
2019-05-12 17:00:00 31.1 11 Nordeste 29 Este 0 -- -- 23
2019-05-12 16:00:00 31.3 10 Este 24 Sudeste 0 -- -- 24
2019-05-12 15:00:00 30.8 11 Nordeste 23 Este 0 -- -- 23
2019-05-12 14:00:00 29.4 13 Este 24 Este 0 -- -- 24
2019-05-12 13:00:00 28 11 Este 26 Este 0 -- -- 28
2019-05-12 12:00:00 26.3 8 Nordeste 22 Este 0 -- -- 32
2019-05-12 11:00:00 23.9 8 Este 19 Nordeste 0 -- -- 38
2019-05-12 10:00:00 20.3 8 Nordeste 17 Nordeste 0 -- -- 49
2019-05-12 09:00:00 16.5 7 Nordeste 18 Norte 0 -- -- 55
2019-05-12 08:00:00 14.2 5 Nordeste 15 Nordeste 0 -- -- 55
2019-05-12 07:00:00 14.9 9 Nordeste 21 Nordeste 0 -- -- 47
2019-05-12 06:00:00 15.7 11 Nordeste 20 Norte 0 -- -- 41
2019-05-12 05:00:00 15.3 6 Nordeste 13 Nordeste 0 -- -- 45
2019-05-12 04:00:00 16.6 8 Nordeste 13 Nordeste 0 -- -- 44
2019-05-12 03:00:00 15.8 5 Sudeste 10 Nordeste 0 -- -- 44
2019-05-12 02:00:00 15.5 3 Este 6 Nordeste 0 -- -- 45
2019-05-12 01:00:00 16.1 3 Noroeste 4 Noroeste 0 -- -- 39
2019-05-12 00:00:00 17.3 3 Oeste 3 Oeste 0 -- -- 38
2019-05-11 23:00:00 18.3 3 Noroeste 12 Norte 0 -- -- 35
2019-05-11 22:00:00 21.5 10 Norte 14 Norte 0 -- -- 29
2019-05-11 21:00:00 26.3 11 Norte 23 Norte 0 -- -- 23
2019-05-11 20:00:00 28.5 16 Norte 30 Norte 0 -- -- 20
2019-05-11 19:00:00 29.5 10 Norte 24 Norte 0 -- -- 23
2019-05-11 18:00:00 29.5 12 Norte 27 Norte 0 -- -- 20
2019-05-11 17:00:00 29.4 12 Nordeste 26 Norte 0 -- -- 23
2019-05-11 16:00:00 29.1 14 Norte 27 Norte 0 -- -- 26
2019-05-11 15:00:00 28 8 Norte 22 Norte 0 -- -- 29
2019-05-11 14:00:00 26.9 7 Nordeste 21 Nordeste 0 -- -- 31
2019-05-11 13:00:00 25.7 8 Nordeste 17 Nordeste 0 -- -- 32
2019-05-11 12:00:00 24.2 9 Nordeste 18 Este 0 -- -- 33
2019-05-11 11:00:00 21.8 5 Nordeste 14 Nordeste 0 -- -- 36
2019-05-11 10:00:00 18.6 5 Este 9 Nordeste 0 -- -- 60
2019-05-11 09:00:00 13.4 0 Calma 4 Sudeste 0 -- -- 82
2019-05-11 08:00:00 9.7 0 Calma 4 Noroeste 0 -- -- 89
2019-05-11 07:00:00 10.1 2 Noroeste 5 Sudeste 0 -- -- 81
2019-05-11 06:00:00 10 0 Calma 4 Sudeste 0 -- -- 87
2019-05-11 05:00:00 11.6 0 Calma 5 Noroeste 0 -- -- 83
2019-05-11 04:00:00 12.3 0 Calma 11 Noroeste 0 -- -- 84
2019-05-11 03:00:00 13.3 9 Noroeste 14 Noroeste 0 -- -- 82
2019-05-11 02:00:00 12.7 6 Noroeste 8 Noroeste 0 -- -- 83
2019-05-11 01:00:00 14.1 5 Oeste 6 Oeste 0 -- -- 75
2019-05-11 00:00:00 16.7 0 Calma 6 Norte 0 -- -- 73
2019-05-10 23:00:00 17.7 4 Noroeste 16 Noroeste 0 -- -- 70
2019-05-10 22:00:00 19.5 14 Noroeste 26 Noroeste 0 -- -- 63
2019-05-10 21:00:00 21.8 19 Noroeste 32 Noroeste 0 -- -- 55
2019-05-10 20:00:00 24 21 Noroeste 30 Norte 0 -- -- 49
2019-05-10 19:00:00 24.7 18 Noroeste 29 Noroeste 0 -- -- 44
2019-05-10 18:00:00 26.5 9 Noroeste 28 Oeste 0 -- -- 38
2019-05-10 17:00:00 25.4 9 Oeste 27 Sudoeste 0 -- -- 41
2019-05-10 16:00:00 26 12 Noroeste 27 Norte 0 -- -- 40
2019-05-10 15:00:00 24.9 11 Noroeste 33 Noroeste 0 -- -- 41
2019-05-10 14:00:00 23.4 8 Norte 19 Oeste 0 -- -- 46
2019-05-10 13:00:00 21.9 8 Noroeste 20 Oeste 0 -- -- 51
2019-05-10 12:00:00 20 7 Oeste 17 Noroeste 0 -- -- 56
2019-05-10 11:00:00 18 5 Norte 12 Norte 0 -- -- 66
2019-05-10 10:00:00 15.7 6 Norte 12 Norte 0 -- -- 77
2019-05-10 09:00:00 14.8 8 Noroeste 11 Noroeste 0 -- -- 82
2019-05-10 08:00:00 14 4 Norte 7 Noroeste 0 -- -- 87
2019-05-10 07:00:00 13.9 4 Oeste 9 Noroeste 0 -- -- 85
2019-05-10 06:00:00 14.6 5 Noroeste 8 Noroeste 0 -- -- 85
2019-05-10 05:00:00 14.7 5 Noroeste 10 Oeste 0 -- -- 89
2019-05-10 04:00:00 14.8 8 Oeste 17 Oeste 0 -- -- 88
2019-05-10 03:00:00 14 3 Noroeste 7 Oeste 0 -- -- 94
2019-05-10 02:00:00 12.7 5 Oeste 10 Oeste 0 -- -- 92
2019-05-10 01:00:00 14.1 7 Oeste 16 Oeste 0 -- -- 88
2019-05-10 00:00:00 15.1 10 Oeste 13 Oeste 0 -- -- 84
2019-05-09 23:00:00 16.6 12 Oeste 17 Oeste 0 -- -- 77
2019-05-09 22:00:00 18.4 12 Oeste 23 Oeste 0 -- -- 69
2019-05-09 21:00:00 20 19 Oeste 33 Oeste 0 -- -- 64
2019-05-09 20:00:00 21.6 21 Oeste 35 Oeste 0 -- -- 59
2019-05-09 19:00:00 22.4 18 Oeste 31 Oeste 0 -- -- 58
2019-05-09 18:00:00 21.8 17 Oeste 31 Oeste 0 -- -- 60
2019-05-09 17:00:00 22.4 17 Sudoeste 26 Oeste 0 -- -- 57
2019-05-09 16:00:00 22.1 16 Sudoeste 27 Sudoeste 0 -- -- 56
2019-05-09 15:00:00 22.6 16 Oeste 27 Oeste 0 -- -- 55
2019-05-09 14:00:00 20.3 11 Oeste 31 Oeste 0 -- -- 63
2019-05-09 13:00:00 20.2 19 Sudoeste 30 Oeste 0 -- -- 66
2019-05-09 12:00:00 18.9 20 Oeste 32 Oeste 0 -- -- 74
2019-05-09 11:00:00 16.5 17 Sudoeste 23 Sudoeste 0.2 -- -- 87
2019-05-09 10:00:00 15.5 15 Sudoeste 25 Sudoeste 0 -- -- 92
2019-05-09 09:00:00 14.8 12 Sudoeste 19 Sudoeste 0 -- -- 95
2019-05-09 08:00:00 14.4 9 Sudoeste 19 Sudoeste 0 -- -- 96
2019-05-09 07:00:00 14.2 11 Sudoeste 18 Sudoeste 0.4 -- -- 96
2019-05-09 06:00:00 14.2 11 Sudoeste 19 Oeste 0 -- -- 95
2019-05-09 05:00:00 15 17 Sudoeste 23 Sudoeste 0 -- -- 88
2019-05-09 04:00:00 15.1 14 Oeste 24 Oeste 0 -- -- 87
2019-05-09 03:00:00 15 14 Oeste 29 Oeste 0 -- -- 88
2019-05-09 02:00:00 15.5 16 Oeste 35 Sudoeste 0 -- -- 84
2019-05-09 01:00:00 16 25 Oeste 34 Oeste 0 -- -- 81
2019-05-09 00:00:00 16.2 23 Oeste 36 Oeste 0 -- -- 80
2019-05-08 23:00:00 16.7 19 Oeste 38 Oeste 0 -- -- 76
2019-05-08 22:00:00 17.3 22 Oeste 36 Oeste 0 -- -- 73
2019-05-08 21:00:00 18.2 22 Oeste 39 Oeste 0 -- -- 69
2019-05-08 20:00:00 19.6 27 Oeste 44 Oeste 0 -- -- 61
2019-05-08 19:00:00 20.6 28 Oeste 42 Oeste 0 -- -- 55
2019-05-08 18:00:00 20.5 26 Oeste 38 Oeste 0 -- -- 55
2019-05-08 17:00:00 19.8 23 Oeste 40 Sudoeste 0 -- -- 57
2019-05-08 16:00:00 21.5 25 Sudoeste 44 Sudoeste 0 -- -- 51
2019-05-08 15:00:00 20.5 26 Oeste 45 Sudoeste 0 -- -- 54
2019-05-08 14:00:00 19.2 25 Oeste 38 Oeste 0 -- -- 59
2019-05-08 13:00:00 19.2 24 Sudoeste 40 Oeste 0 -- -- 57
2019-05-08 12:00:00 18.6 27 Sudoeste 39 Sudoeste 0 -- -- 59
2019-05-08 11:00:00 17.5 22 Sudoeste 37 Sudoeste 0 -- -- 68
2019-05-08 10:00:00 15.8 18 Sudoeste 32 Sudoeste 0 -- -- 76
2019-05-08 09:00:00 14.2 17 Sudoeste 27 Oeste 0 -- -- 85
2019-05-08 08:00:00 13 13 Sudoeste 21 Oeste 0 -- -- 92
2019-05-08 07:00:00 12.8 11 Sudoeste 20 Sudoeste 0 -- -- 90
2019-05-08 06:00:00 12.8 2 Este 8 Sur 0 -- -- 88
2019-05-08 05:00:00 13.4 0 Calma 14 Oeste 0 -- -- 89
2019-05-08 04:00:00 14.1 10 Oeste 15 Oeste 0 -- -- 85
2019-05-08 03:00:00 13.5 4 Oeste 8 Oeste 0 -- -- 82
2019-05-08 02:00:00 14.7 4 Sudoeste 9 Oeste 0 -- -- 74
2019-05-08 01:00:00 15.6 5 Oeste 8 Oeste 0 -- -- 70
2019-05-08 00:00:00 17.1 2 Sudoeste 9 Oeste 0 -- -- 68
2019-05-07 23:00:00 17.6 8 Noroeste 23 Oeste 0 -- -- 66
2019-05-07 22:00:00 18.8 14 Noroeste 24 Noroeste 0 -- -- 63
2019-05-07 21:00:00 20.5 18 Noroeste 29 Noroeste 0 -- -- 56
2019-05-07 20:00:00 22.4 22 Noroeste 32 Noroeste 0 -- -- 49
2019-05-07 19:00:00 24.6 18 Noroeste 35 Oeste 0 -- -- 40
2019-05-07 18:00:00 25.8 14 Noroeste 31 Sudoeste 0 -- -- 35
2019-05-07 17:00:00 25.9 12 Oeste 36 Oeste 0 -- -- 34
2019-05-07 16:00:00 25.7 10 Noroeste 29 Oeste 0 -- -- 34
2019-05-07 15:00:00 25.1 12 Oeste 26 Noroeste 0 -- -- 34
2019-05-07 14:00:00 23.6 10 Noroeste 41 Oeste 0 -- -- 38
2019-05-07 13:00:00 22.3 11 Oeste 23 Oeste 0 -- -- 40
2019-05-07 12:00:00 20.8 11 Oeste 21 Oeste 0 -- -- 46
2019-05-07 11:00:00 17.9 7 Sudoeste 14 Oeste 0 -- -- 57
2019-05-07 10:00:00 15 6 Sur 12 Sudoeste 0 -- -- 66
2019-05-07 09:00:00 11.6 5 Sur 10 Sur 0 -- -- 79
2019-05-07 08:00:00 8.1 0 Calma 7 Oeste 0 -- -- 88
2019-05-07 07:00:00 8.1 3 Oeste 6 Sudoeste 0 -- -- 85
2019-05-07 06:00:00 9.3 3 Sur 5 Sudeste 0 -- -- 81
2019-05-07 05:00:00 9 4 Oeste 6 Oeste 0 -- -- 79
2019-05-07 04:00:00 10.3 0 Calma 3 Este 0 -- -- 74
2019-05-07 03:00:00 11.9 2 Sur 5 Noroeste 0 -- -- 72
2019-05-07 02:00:00 12.6 3 Oeste 8 Noroeste 0 -- -- 68
2019-05-07 01:00:00 13.9 0 Calma 5 Noroeste 0 -- -- 67
2019-05-07 00:00:00 15.3 0 Calma 20 Oeste 0 -- -- 64
2019-05-06 23:00:00 16.4 10 Oeste 19 Oeste 0 -- -- 62
2019-05-06 22:00:00 18.4 8 Noroeste 27 Oeste 0 -- -- 48
2019-05-06 21:00:00 21.1 15 Sudoeste 27 Oeste 0 -- -- 41
2019-05-06 20:00:00 23.7 15 Oeste 30 Oeste 0 -- -- 40
2019-05-06 19:00:00 24.5 8 Sudoeste 29 Oeste 0 -- -- 36
2019-05-06 18:00:00 24.8 13 Oeste 32 Sudoeste 0 -- -- 37
2019-05-06 17:00:00 25 17 Oeste 31 Oeste 0 -- -- 30
2019-05-06 16:00:00 25.8 19 Sudoeste 36 Oeste 0 -- -- 25
2019-05-06 15:00:00 24.3 9 Sudoeste 32 Sudoeste 0 -- -- 39
2019-05-06 14:00:00 23.8 14 Sudoeste 31 Sur 0 -- -- 36
2019-05-06 13:00:00 23.1 13 Sudoeste 28 Oeste 0 -- -- 41
2019-05-06 12:00:00 21.6 13 Oeste 21 Oeste 0 -- -- 49
2019-05-06 11:00:00 19.3 5 Sudoeste 14 Sur 0 -- -- 58
2019-05-06 10:00:00 17.1 2 Norte 8 Sudoeste 0 -- -- 71
2019-05-06 09:00:00 13.8 5 Sudoeste 10 Sudoeste 0 -- -- 86
2019-05-06 08:00:00 11.9 7 Sudoeste 12 Sudoeste 0 -- -- 91
2019-05-06 07:00:00 11.6 3 Sur 7 Sur 0 -- -- 88
2019-05-06 06:00:00 12 3 Sur 5 Sur 0 -- -- 87
2019-05-06 05:00:00 12.5 2 Sur 5 Sur 0 -- -- 82
2019-05-06 04:00:00 13.6 0 Calma 6 Noroeste 0 -- -- 79
2019-05-06 03:00:00 14.9 3 Norte 25 Oeste 0 -- -- 76
2019-05-06 02:00:00 16.3 20 Oeste 28 Oeste 0 -- -- 74
2019-05-06 01:00:00 15.7 9 Sudoeste 16 Sudoeste 0 -- -- 78
2019-05-06 00:00:00 16.9 8 Sudoeste 21 Sudoeste 0 -- -- 74
2019-05-05 23:00:00 18.6 13 Sudoeste 22 Sudoeste 0 -- -- 68
2019-05-05 22:00:00 20.1 14 Sudoeste 22 Sudoeste 0 -- -- 63
2019-05-05 21:00:00 22.1 7 Oeste 27 Noroeste 0 -- -- 37
2019-05-05 20:00:00 25.3 20 Noroeste 31 Oeste 0 -- -- 30
2019-05-05 19:00:00 25.2 15 Oeste 32 Oeste 0 -- -- 31
2019-05-05 18:00:00 26.8 19 Oeste 32 Oeste 0 -- -- 29
2019-05-05 17:00:00 26.2 14 Sudoeste 31 Sudoeste 0 -- -- 35
2019-05-05 16:00:00 24.5 15 Sur 31 Sudoeste 0 -- -- 44
2019-05-05 15:00:00 24.6 14 Sur 26 Sur 0 -- -- 42
2019-05-05 14:00:00 24 7 Sudoeste 26 Oeste 0 -- -- 42
2019-05-05 13:00:00 23.1 12 Sudoeste 29 Oeste 0 -- -- 47
2019-05-05 12:00:00 21.1 9 Sudoeste 24 Oeste 0 -- -- 55
2019-05-05 11:00:00 18.6 9 Sur 16 Sudoeste 0 -- -- 66
2019-05-05 10:00:00 16.4 8 Sur 15 Sudoeste 0 -- -- 75
2019-05-05 09:00:00 13.1 8 Sur 15 Sur 0 -- -- 90
2019-05-05 08:00:00 11.5 5 Sur 11 Sudoeste 0 -- -- 95
2019-05-05 07:00:00 11.5 2 Sur 8 Sudoeste 0 -- -- 92
2019-05-05 06:00:00 11.4 4 Sudoeste 8 Sur 0 -- -- 90
2019-05-05 05:00:00 12.3 0 Calma 10 Sur 0 -- -- 91
2019-05-05 04:00:00 12 4 Sudoeste 6 Sudoeste 0 -- -- 93
2019-05-05 03:00:00 12.8 3 Sudoeste 11 Sudoeste 0 -- -- 87
2019-05-05 02:00:00 13.8 6 Sur 12 Sudoeste 0 -- -- 84
2019-05-05 01:00:00 15.6 4 Sur 12 Sur 0 -- -- 76
2019-05-05 00:00:00 16.7 4 Sur 16 Sur 0 -- -- 68
2019-05-04 23:00:00 16.7 8 Sur 17 Sudoeste 0 -- -- 52
2019-05-04 22:00:00 18.6 4 Nordeste 14 Norte 0 -- -- 33
2019-05-04 21:00:00 22.3 10 Norte 24 Noroeste 0 -- -- 27
2019-05-04 20:00:00 24.8 12 Noroeste 23 Oeste 0 -- -- 24
2019-05-04 19:00:00 25.7 13 Noroeste 24 Noroeste 0 -- -- 23
2019-05-04 18:00:00 25.8 7 Oeste 29 Noroeste 0 -- -- 22
2019-05-04 17:00:00 25.8 14 Noroeste 35 Noroeste 0 -- -- 20
2019-05-04 16:00:00 25.2 7 Norte 23 Norte 0 -- -- 22
2019-05-04 15:00:00 24.6 12 Noroeste 19 Oeste 0 -- -- 21
2019-05-04 14:00:00 23.7 6 Este 18 Este 0 -- -- 25
2019-05-04 13:00:00 22 5 Este 19 Norte 0 -- -- 27
2019-05-04 12:00:00 21 6 Norte 13 Noroeste 0 -- -- 29
2019-05-04 11:00:00 18.9 4 Sur 15 Sur 0 -- -- 39
2019-05-04 10:00:00 16.7 5 Sur 12 Este 0 -- -- 44
2019-05-04 09:00:00 10.4 0 Calma 4 Sudoeste 0 -- -- 66
2019-05-04 08:00:00 8.5 0 Calma 8 Nordeste 0 -- -- 71
2019-05-04 07:00:00 7.2 4 Nordeste 9 Este 0 -- -- 75
2019-05-04 06:00:00 8.4 2 Nordeste 6 Este 0 -- -- 65
2019-05-04 05:00:00 9.4 0 Calma 10 Nordeste 0 -- -- 64
2019-05-04 04:00:00 11.3 3 Nordeste 12 Nordeste 0 -- -- 61
2019-05-04 03:00:00 12.5 6 Nordeste 15 Este 0 -- -- 56
2019-05-04 02:00:00 13.7 5 Este 17 Nordeste 0 -- -- 52
2019-05-04 01:00:00 15.2 13 Nordeste 25 Nordeste 0 -- -- 50
2019-05-04 00:00:00 15.3 7 Nordeste 15 Norte 0 -- -- 43
2019-05-03 23:00:00 16.8 7 Norte 28 Norte 0 -- -- 39
2019-05-03 22:00:00 20.3 20 Norte 29 Norte 0 -- -- 32
2019-05-03 21:00:00 22.5 16 Noroeste 32 Noroeste 0 -- -- 29
2019-05-03 20:00:00 24.7 20 Noroeste 34 Noroeste 0 -- -- 26
2019-05-03 19:00:00 26 24 Noroeste 41 Noroeste 0 -- -- 25
2019-05-03 18:00:00 26.7 27 Noroeste 45 Noroeste 0 -- -- 25
2019-05-03 17:00:00 26.9 20 Noroeste 40 Noroeste 0 -- -- 31
2019-05-03 16:00:00 26.9 24 Noroeste 49 Oeste 0 -- -- 24
2019-05-03 15:00:00 26.5 27 Noroeste 42 Oeste 0 -- -- 29
2019-05-03 14:00:00 26.4 24 Oeste 42 Oeste 0 -- -- 29
2019-05-03 13:00:00 25.7 25 Oeste 36 Oeste 0 -- -- 34
2019-05-03 12:00:00 23.8 15 Oeste 24 Oeste 0 -- -- 42
2019-05-03 11:00:00 21 10 Noroeste 19 Oeste 0 -- -- 49
2019-05-03 10:00:00 18.1 12 Oeste 18 Sudoeste 0 -- -- 57
2019-05-03 09:00:00 14.3 8 Sudoeste 13 Sur 0 -- -- 69
2019-05-03 08:00:00 11.4 0 Calma 6 Sudoeste 0 -- -- 79
2019-05-03 07:00:00 11.4 0 Calma 6 Sur 0 -- -- 77
2019-05-03 06:00:00 12.4 2 Sur 10 Sudoeste 0 -- -- 71
2019-05-03 05:00:00 12.9 3 Sur 8 Sur 0 -- -- 69
2019-05-03 04:00:00 13.4 2 Sur 8 Sur 0 -- -- 65
2019-05-03 03:00:00 13.8 6 Sudoeste 9 Sudoeste 0 -- -- 64
2019-05-03 02:00:00 15.7 3 Sur 7 Sur 0 -- -- 59
2019-05-03 01:00:00 15.9 2 Sudoeste 5 Sur 0 -- -- 59
2019-05-03 00:00:00 16.4 3 Sudoeste 6 Sudoeste 0 -- -- 58
2019-05-02 23:00:00 19.1 0 Calma 9 Nordeste 0 -- -- 48
2019-05-02 22:00:00 21.9 7 Nordeste 16 Norte 0 -- -- 40
2019-05-02 21:00:00 23.9 9 Norte 22 Norte 0 -- -- 35
2019-05-02 20:00:00 26.8 17 Norte 24 Norte 0 -- -- 30
2019-05-02 19:00:00 27.3 10 Nordeste 25 Nordeste 0 -- -- 30
2019-05-02 18:00:00 26.7 6 Nordeste 24 Norte 0 -- -- 29
2019-05-02 17:00:00 28.4 9 Este 23 Norte 0 -- -- 27
2019-05-02 16:00:00 26.8 13 Nordeste 58 Nordeste 0 -- -- 30
2019-05-02 15:00:00 27.8 8 Nordeste 26 Nordeste 0 -- -- 29
2019-05-02 14:00:00 26.8 10 Nordeste 24 Este 0 -- -- 33
2019-05-02 13:00:00 26.2 8 Nordeste 19 Nordeste 0 -- -- 35
2019-05-02 12:00:00 24.5 4 Nordeste 18 Sudeste 0 -- -- 35
2019-05-02 11:00:00 22.5 7 Sur 15 Sur 0 -- -- 42
2019-05-02 10:00:00 19.8 10 Sur 20 Sudeste 0 -- -- 50
2019-05-02 09:00:00 13.2 0 Calma 6 Sudeste 0 -- -- 79
2019-05-02 08:00:00 10.1 0 Calma 3 Oeste 0 -- -- 83
2019-05-02 07:00:00 11.4 0 Calma 3 Oeste 0 -- -- 77
2019-05-02 06:00:00 13.3 2 Sudeste 7 Sudeste 0 -- -- 73
2019-05-02 05:00:00 13 2 Sudoeste 13 Sudeste 0 -- -- 73
2019-05-02 04:00:00 13.9 4 Sudeste 8 Sudeste 0 -- -- 72
2019-05-02 03:00:00 13.4 4 Oeste 12 Oeste 0 -- -- 77
2019-05-02 02:00:00 15.8 2 Sudeste 9 Sur 0 -- -- 67
2019-05-02 01:00:00 16.2 0 Calma 13 Oeste 0 -- -- 65
2019-05-02 00:00:00 16.9 4 Oeste 11 Oeste 0 -- -- 65
2019-05-01 23:00:00 19.1 3 Sudeste 8 Nordeste 0 -- -- 54
2019-05-01 22:00:00 19.9 4 Noroeste 15 Oeste 0 -- -- 52
2019-05-01 21:00:00 20.8 7 Sudoeste 18 Oeste 0 -- -- 50
2019-05-01 20:00:00 21.8 7 Noroeste 15 Oeste 0 -- -- 50
2019-05-01 19:00:00 23.7 8 Noroeste 15 Noroeste 0 -- -- 41
2019-05-01 18:00:00 26 9 Sur 19 Sur 0 -- -- 32
2019-05-01 17:00:00 28.3 5 Sudeste 19 Sur 0 -- -- 28
2019-05-01 16:00:00 28.3 8 Sudeste 21 Sudeste 0 -- -- 31
2019-05-01 15:00:00 27 7 Sudeste 22 Sur 0 -- -- 31
2019-05-01 14:00:00 26.9 6 Oeste 21 Sur 0 -- -- 31
2019-05-01 13:00:00 26.1 9 Sur 15 Sur 0 -- -- 35
2019-05-01 12:00:00 24.3 6 Sur 14 Sur 0 -- -- 44
2019-05-01 11:00:00 22.1 7 Sur 13 Sur 0 -- -- 50
2019-05-01 10:00:00 18.6 6 Sur 9 Sur 0 -- -- 59
2019-05-01 09:00:00 14.3 4 Sur 9 Sur 0 -- -- 72
2019-05-01 08:00:00 11.1 4 Sudoeste 6 Sur 0 -- -- 78
2019-05-01 07:00:00 12.8 2 Sudeste 8 Sur 0 -- -- 71
2019-05-01 06:00:00 11.6 2 Sudoeste 10 Sur 0 -- -- 75
2019-05-01 05:00:00 11.1 3 Sur 5 Sudoeste 0 -- -- 77
2019-05-01 04:00:00 12.1 0 Calma 5 Sur 0 -- -- 73
2019-05-01 03:00:00 12.7 2 Sudoeste 5 Sur 0 -- -- 71
2019-05-01 02:00:00 14.1 0 Calma 5 Sudoeste 0 -- -- 67
2019-05-01 01:00:00 14.6 2 Sudoeste 5 Sur 0 -- -- 62
2019-05-01 00:00:00 15.9 2 Sur 6 Sur 0 -- -- 58
2019-04-30 23:00:00 17.1 0 Calma 8 Noroeste 0 -- -- 55
2019-04-30 22:00:00 19.2 7 Noroeste 9 Noroeste 0 -- -- 48
2019-04-30 21:00:00 23.3 6 Noroeste 17 Noroeste 0 -- -- 39
2019-04-30 20:00:00 25.9 11 Noroeste 22 Noroeste 0 -- -- 32
2019-04-30 19:00:00 27.6 15 Norte 26 Noroeste 0 -- -- 29
2019-04-30 18:00:00 27.3 15 Noroeste 25 Noroeste 0 -- -- 31
2019-04-30 17:00:00 26.2 10 Noroeste 26 Noroeste 0 -- -- 31
2019-04-30 16:00:00 28.5 11 Oeste 24 Oeste 0 -- -- 29
2019-04-30 15:00:00 27.3 14 Oeste 22 Noroeste 0 -- -- 32
2019-04-30 14:00:00 27 2 Sudeste 22 Oeste 0 -- -- 28
2019-04-30 13:00:00 26.1 8 Noroeste 18 Norte 0 -- -- 32
2019-04-30 12:00:00 24.8 5 Sudoeste 11 Sudoeste 0 -- -- 42
2019-04-30 11:00:00 21.7 3 Sudoeste 8 Sudoeste 0 -- -- 53
2019-04-30 10:00:00 17.4 6 Sudoeste 9 Sudoeste 0 -- -- 66
2019-04-30 09:00:00 14.1 6 Sur 10 Sur 0 -- -- 73
2019-04-30 08:00:00 12.5 4 Sur 9 Sur 0 -- -- 74
2019-04-30 07:00:00 12.6 5 Sur 10 Sur 0 -- -- 74
2019-04-30 06:00:00 11.9 4 Sur 11 Sur 0 -- -- 74
2019-04-30 05:00:00 11.2 4 Sudoeste 6 Sudoeste 0 -- -- 75
2019-04-30 04:00:00 12.1 4 Oeste 6 Oeste 0 -- -- 73
2019-04-30 03:00:00 14.6 4 Sudoeste 8 Sur 0 -- -- 64
2019-04-30 02:00:00 14.8 5 Sur 7 Sur 0 -- -- 64
2019-04-30 01:00:00 16 0 Calma 10 Sur 0 -- -- 60
2019-04-30 00:00:00 16.1 0 Calma 4 Sur 0 -- -- 60
2019-04-29 23:00:00 17.9 2 Sur 5 Sur 0 -- -- 56
2019-04-29 22:00:00 19.1 5 Oeste 9 Norte 0 -- -- 53
2019-04-29 21:00:00 23 8 Norte 17 Norte 0 -- -- 42
2019-04-29 20:00:00 25.3 8 Norte 23 Norte 0 -- -- 36
2019-04-29 19:00:00 27.5 4 Oeste 24 Noroeste 0 -- -- 29
2019-04-29 18:00:00 27.8 8 Noroeste 19 Oeste 0 -- -- 27
2019-04-29 17:00:00 27.6 7 Noroeste 19 Oeste 0 -- -- 27
2019-04-29 16:00:00 27.7 9 Sur 25 Noroeste 0 -- -- 28
2019-04-29 15:00:00 26.5 5 Nordeste 15 Este 0 -- -- 28
2019-04-29 14:00:00 25.5 6 Nordeste 18 Sur 0 -- -- 30
2019-04-29 13:00:00 24.7 8 Sur 16 Sudoeste 0 -- -- 33
2019-04-29 12:00:00 22.9 5 Sur 17 Sudoeste 0 -- -- 34
2019-04-29 11:00:00 21 8 Sur 14 Sudoeste 0 -- -- 37
2019-04-29 10:00:00 17.6 6 Sur 10 Sur 0 -- -- 44
2019-04-29 09:00:00 11.1 0 Calma 3 Sudoeste 0 -- -- 75
2019-04-29 08:00:00 10 0 Calma 6 Sur 0 -- -- 72
2019-04-29 07:00:00 9.6 0 Calma 4 Sur 0 -- -- 75
2019-04-29 06:00:00 11.1 0 Calma 8 Sudeste 0 -- -- 71
2019-04-29 05:00:00 11.9 4 Sudoeste 6 Sur 0 -- -- 68
2019-04-29 04:00:00 12.4 2 Sur 7 Sudoeste 0 -- -- 67
2019-04-29 03:00:00 14 3 Sudoeste 13 Sur 0 -- -- 61
2019-04-29 02:00:00 13.5 8 Sur 14 Sur 0 -- -- 65
2019-04-29 01:00:00 13.1 0 Calma 6 Oeste 0 -- -- 68
2019-04-29 00:00:00 13.8 6 Oeste 11 Noroeste 0 -- -- 64
2019-04-28 23:00:00 15.5 0 Calma 3 Sudoeste 0 -- -- 58
2019-04-28 22:00:00 18.6 0 Calma 9 Nordeste 0 -- -- 48
2019-04-28 21:00:00 21.9 6 Nordeste 16 Nordeste 0 -- -- 36
2019-04-28 20:00:00 24.2 9 Nordeste 19 Nordeste 0 -- -- 31
2019-04-28 19:00:00 25.7 9 Norte 20 Norte 0 -- -- 31
2019-04-28 18:00:00 26.3 11 Nordeste 25 Norte 0 -- -- 30
2019-04-28 17:00:00 26.7 10 Norte 23 Nordeste 0 -- -- 29
2019-04-28 16:00:00 26 9 Nordeste 26 Sudeste 0 -- -- 30
2019-04-28 15:00:00 25.6 8 Nordeste 20 Este 0 -- -- 32
2019-04-28 14:00:00 24.1 11 Este 22 Este 0 -- -- 37
2019-04-28 13:00:00 23.5 8 Este 20 Este 0 -- -- 38
2019-04-28 12:00:00 21.7 10 Nordeste 18 Nordeste 0 -- -- 44
2019-04-28 11:00:00 20.4 9 Este 17 Nordeste 0 -- -- 44
2019-04-28 10:00:00 15.3 3 Este 6 Este 0 -- -- 61
2019-04-28 09:00:00 9.1 0 Calma 5 Este 0 -- -- 91
2019-04-28 08:00:00 6.3 0 Calma 6 Noroeste 0 -- -- 87
2019-04-28 07:00:00 6.5 3 Oeste 4 Oeste 0 -- -- 88
2019-04-28 06:00:00 7 0 Calma 3 Este 0 -- -- 85
2019-04-28 05:00:00 7.8 2 Oeste 3 Oeste 0 -- -- 85
2019-04-28 04:00:00 8.7 0 Calma 4 Norte 0 -- -- 81
2019-04-28 03:00:00 9.5 3 Oeste 4 Oeste 0 -- -- 79
2019-04-28 02:00:00 9.8 0 Calma 3 Sudoeste 0 -- -- 77
2019-04-28 01:00:00 11 0 Calma 6 Norte 0 -- -- 72
2019-04-28 00:00:00 12 3 Norte 6 Noroeste 0 -- -- 68
2019-04-27 23:00:00 14.6 2 Nordeste 10 Nordeste 0 -- -- 62
2019-04-27 22:00:00 17 7 Nordeste 10 Nordeste 0 -- -- 48
2019-04-27 21:00:00 19.8 7 Nordeste 15 Nordeste 0 -- -- 42
2019-04-27 20:00:00 21.9 10 Nordeste 21 Norte 0 -- -- 36
2019-04-27 19:00:00 22.8 13 Nordeste 21 Nordeste 0 -- -- 35
2019-04-27 18:00:00 23.6 8 Nordeste 22 Nordeste 0 -- -- 35
2019-04-27 17:00:00 23.6 11 Nordeste 27 Norte 0 -- -- 32
2019-04-27 16:00:00 22.9 10 Nordeste 24 Norte 0 -- -- 33
2019-04-27 15:00:00 22.1 10 Nordeste 27 Nordeste 0 -- -- 33
2019-04-27 14:00:00 20.9 12 Nordeste 24 Nordeste 0 -- -- 34
2019-04-27 13:00:00 20.1 8 Nordeste 23 Nordeste 0 -- -- 42
2019-04-27 12:00:00 17.9 10 Nordeste 20 Nordeste 0 -- -- 48
2019-04-27 11:00:00 16.1 6 Nordeste 14 Nordeste 0 -- -- 56
2019-04-27 10:00:00 12.2 6 Nordeste 12 Nordeste 0 -- -- 70
2019-04-27 09:00:00 7.2 3 Este 6 Nordeste 0 -- -- 93
2019-04-27 08:00:00 3.8 0 Calma 5 Sur 0 -- -- 92
2019-04-27 07:00:00 4 0 Calma 3 Sudoeste 0 -- -- 89
2019-04-27 06:00:00 4.4 0 Calma 0 Calma 0 -- -- 90
2019-04-27 05:00:00 5.2 0 Calma 2 Sur 0 -- -- 88
2019-04-27 04:00:00 5.7 2 Sudeste 4 Noroeste 0 -- -- 88
2019-04-27 03:00:00 6.3 0 Calma 5 Norte 0 -- -- 83
2019-04-27 02:00:00 7.8 6 Norte 8 Norte 0 -- -- 77
2019-04-27 01:00:00 7.6 0 Calma 7 Noroeste 0 -- -- 81
2019-04-27 00:00:00 8.1 7 Noroeste 9 Noroeste 0 -- -- 80
2019-04-26 23:00:00 8.7 6 Noroeste 13 Norte 0 -- -- 78
2019-04-26 22:00:00 10.3 9 Norte 12 Norte 0 -- -- 71
2019-04-26 21:00:00 14 8 Norte 19 Norte 0 -- -- 56
2019-04-26 20:00:00 16.1 12 Norte 22 Norte 0 -- -- 46
2019-04-26 19:00:00 16.9 9 Nordeste 23 Norte 0 -- -- 44
2019-04-26 18:00:00 17 13 Norte 25 Norte 0 -- -- 44
2019-04-26 17:00:00 16.8 17 Norte 25 Norte 0 -- -- 46
2019-04-26 16:00:00 16.5 9 Norte 24 Norte 0 -- -- 46
2019-04-26 15:00:00 16.4 12 Norte 29 Norte 0 -- -- 48
2019-04-26 14:00:00 15.4 12 Norte 23 Norte 0 -- -- 52
2019-04-26 13:00:00 13.7 10 Norte 21 Norte 0 -- -- 60
2019-04-26 12:00:00 13.7 12 Norte 21 Norte 0 -- -- 64
2019-04-26 11:00:00 11.6 9 Norte 18 Norte 0.2 -- -- 76
2019-04-26 10:00:00 8.7 9 Noroeste 14 Noroeste 0 -- -- 95
2019-04-26 09:00:00 6 2 Norte 8 Norte 0 -- -- 99
2019-04-26 08:00:00 3.6 0 Calma 9 Sudeste 0 -- -- 97
2019-04-26 07:00:00 3.1 0 Calma 13 Oeste 0 -- -- 97
2019-04-26 06:00:00 3.7 4 Oeste 9 Oeste 0 -- -- 95
2019-04-26 05:00:00 4.9 6 Noroeste 9 Noroeste 0 -- -- 91
2019-04-26 04:00:00 5.6 0 Calma 12 Noroeste 0 -- -- 89
2019-04-26 03:00:00 5.4 6 Norte 14 Noroeste 0 -- -- 89
2019-04-26 02:00:00 5.7 10 Noroeste 16 Noroeste 0 -- -- 89
2019-04-26 01:00:00 6.5 2 Norte 12 Noroeste 0 -- -- 85
2019-04-26 00:00:00 7.1 8 Noroeste 17 Oeste 0 -- -- 84